sensor_id;sensor_type;location;lat;lon;timestamp;noise_LAeq;noise_LA_min;noise_LA_max;noise_LA01;noise_LA95
72686;Laerm;61365;52.162;4.500;2023-08-17T00:00:26;41.31;33.31;43.91;;
72686;Laerm;61365;52.162;4.500;2023-08-17T00:02:52;41.31;34.46;43.59;;
72686;Laerm;61365;52.162;4.500;2023-08-17T00:05:18;41.31;34.25;43.79;;
72686;Laerm;61365;52.162;4.500;2023-08-17T00:07:44;41.30;33.87;43.44;;
72686;Laerm;61365;52.162;4.500;2023-08-17T00:10:11;41.41;33.67;43.77;;
72686;Laerm;61365;52.162;4.500;2023-08-17T00:12:37;41.47;33.94;43.96;;
72686;Laerm;61365;52.162;4.500;2023-08-17T00:15:03;41.43;34.44;44.39;;
72686;Laerm;61365;52.162;4.500;2023-08-17T00:17:30;41.52;34.65;44.00;;
72686;Laerm;61365;52.162;4.500;2023-08-17T00:19:56;41.30;35.12;44.04;;
72686;Laerm;61365;52.162;4.500;2023-08-17T00:22:22;41.37;34.70;43.67;;
72686;Laerm;61365;52.162;4.500;2023-08-17T00:24:48;41.43;34.84;43.68;;
72686;Laerm;61365;52.162;4.500;2023-08-17T00:27:14;41.52;33.88;44.11;;
72686;Laerm;61365;52.162;4.500;2023-08-17T00:29:40;41.49;33.41;44.20;;
72686;Laerm;61365;52.162;4.500;2023-08-17T00:32:06;41.48;34.80;44.42;;
72686;Laerm;61365;52.162;4.500;2023-08-17T00:34:33;41.47;33.23;44.23;;
72686;Laerm;61365;52.162;4.500;2023-08-17T00:36:59;41.40;33.46;43.67;;
72686;Laerm;61365;52.162;4.500;2023-08-17T00:39:25;41.62;33.71;44.14;;
72686;Laerm;61365;52.162;4.500;2023-08-17T00:41:51;41.65;33.91;44.26;;
72686;Laerm;61365;52.162;4.500;2023-08-17T00:44:18;41.33;34.46;43.61;;
72686;Laerm;61365;52.162;4.500;2023-08-17T00:46:44;41.51;34.37;43.95;;
72686;Laerm;61365;52.162;4.500;2023-08-17T00:49:10;41.51;34.71;43.89;;
72686;Laerm;61365;52.162;4.500;2023-08-17T00:51:37;41.51;35.32;44.01;;
72686;Laerm;61365;52.162;4.500;2023-08-17T00:54:04;41.50;34.65;43.82;;
72686;Laerm;61365;52.162;4.500;2023-08-17T00:56:30;41.46;33.91;43.67;;
72686;Laerm;61365;52.162;4.500;2023-08-17T00:58:57;41.48;33.81;43.89;;
72686;Laerm;61365;52.162;4.500;2023-08-17T01:01:23;41.53;34.62;44.08;;
72686;Laerm;61365;52.162;4.500;2023-08-17T01:03:49;41.53;33.57;43.83;;
72686;Laerm;61365;52.162;4.500;2023-08-17T01:06:16;41.41;35.69;44.01;;
72686;Laerm;61365;52.162;4.500;2023-08-17T01:08:43;41.43;34.04;47.59;;
72686;Laerm;61365;52.162;4.500;2023-08-17T01:13:55;41.53;35.07;43.86;;
72686;Laerm;61365;52.162;4.500;2023-08-17T01:16:40;41.48;34.19;43.97;;
72686;Laerm;61365;52.162;4.500;2023-08-17T01:19:08;41.47;34.98;43.90;;
72686;Laerm;61365;52.162;4.500;2023-08-17T01:21:41;41.45;34.56;45.25;;
72686;Laerm;61365;52.162;4.500;2023-08-17T01:24:14;41.50;35.37;43.86;;
72686;Laerm;61365;52.162;4.500;2023-08-17T01:26:40;41.38;34.08;43.50;;
72686;Laerm;61365;52.162;4.500;2023-08-17T01:29:06;41.48;35.73;43.80;;
72686;Laerm;61365;52.162;4.500;2023-08-17T01:31:58;41.52;34.64;43.99;;
72686;Laerm;61365;52.162;4.500;2023-08-17T01:34:29;41.50;34.35;43.75;;
72686;Laerm;61365;52.162;4.500;2023-08-17T01:37:00;41.47;33.60;43.73;;
72686;Laerm;61365;52.162;4.500;2023-08-17T01:39:31;41.51;35.51;43.61;;
72686;Laerm;61365;52.162;4.500;2023-08-17T01:42:01;41.46;33.89;44.27;;
72686;Laerm;61365;52.162;4.500;2023-08-17T01:44:28;41.39;35.33;43.66;;
72686;Laerm;61365;52.162;4.500;2023-08-17T01:46:54;41.53;34.26;43.67;;
72686;Laerm;61365;52.162;4.500;2023-08-17T01:49:20;41.47;34.07;43.64;;
72686;Laerm;61365;52.162;4.500;2023-08-17T01:51:46;41.48;34.48;43.96;;
72686;Laerm;61365;52.162;4.500;2023-08-17T01:54:12;41.52;34.57;43.73;;
72686;Laerm;61365;52.162;4.500;2023-08-17T01:56:38;41.51;35.84;44.39;;
72686;Laerm;61365;52.162;4.500;2023-08-17T01:59:04;41.47;33.46;43.87;;
72686;Laerm;61365;52.162;4.500;2023-08-17T02:01:31;41.47;34.69;44.15;;
72686;Laerm;61365;52.162;4.500;2023-08-17T02:03:57;41.53;34.75;43.91;;
72686;Laerm;61365;52.162;4.500;2023-08-17T02:06:23;41.47;34.96;43.80;;
72686;Laerm;61365;52.162;4.500;2023-08-17T02:08:49;41.40;33.45;44.24;;
72686;Laerm;61365;52.162;4.500;2023-08-17T02:11:15;41.38;35.35;43.77;;
72686;Laerm;61365;52.162;4.500;2023-08-17T02:13:41;41.40;34.66;43.80;;
72686;Laerm;61365;52.162;4.500;2023-08-17T02:16:07;41.32;33.90;43.70;;
72686;Laerm;61365;52.162;4.500;2023-08-17T02:18:33;41.33;33.37;43.55;;
72686;Laerm;61365;52.162;4.500;2023-08-17T02:21:00;41.48;34.55;43.94;;
72686;Laerm;61365;52.162;4.500;2023-08-17T02:23:26;41.34;34.19;43.78;;
72686;Laerm;61365;52.162;4.500;2023-08-17T02:25:52;41.32;33.69;43.73;;
72686;Laerm;61365;52.162;4.500;2023-08-17T02:28:18;41.46;34.44;44.03;;
72686;Laerm;61365;52.162;4.500;2023-08-17T02:30:45;41.45;35.28;43.82;;
72686;Laerm;61365;52.162;4.500;2023-08-17T02:33:12;41.50;34.24;43.98;;
72686;Laerm;61365;52.162;4.500;2023-08-17T02:35:38;41.47;34.33;44.29;;
72686;Laerm;61365;52.162;4.500;2023-08-17T02:38:04;41.43;33.40;43.95;;
72686;Laerm;61365;52.162;4.500;2023-08-17T02:40:30;41.43;34.59;44.35;;
72686;Laerm;61365;52.162;4.500;2023-08-17T02:42:56;41.33;34.13;43.67;;
72686;Laerm;61365;52.162;4.500;2023-08-17T02:45:23;41.29;34.16;43.60;;
72686;Laerm;61365;52.162;4.500;2023-08-17T02:47:49;41.36;34.30;44.15;;
72686;Laerm;61365;52.162;4.500;2023-08-17T02:50:15;41.44;34.24;47.77;;
72686;Laerm;61365;52.162;4.500;2023-08-17T02:52:42;41.47;33.76;43.90;;
72686;Laerm;61365;52.162;4.500;2023-08-17T02:55:08;41.42;35.72;43.98;;
72686;Laerm;61365;52.162;4.500;2023-08-17T02:57:34;41.50;35.07;43.88;;
72686;Laerm;61365;52.162;4.500;2023-08-17T03:00:00;41.52;34.42;44.11;;
72686;Laerm;61365;52.162;4.500;2023-08-17T03:02:26;41.46;35.01;43.78;;
72686;Laerm;61365;52.162;4.500;2023-08-17T03:04:53;41.41;34.48;44.24;;
72686;Laerm;61365;52.162;4.500;2023-08-17T03:07:19;41.41;34.69;44.04;;
72686;Laerm;61365;52.162;4.500;2023-08-17T03:09:45;41.44;34.60;47.43;;
72686;Laerm;61365;52.162;4.500;2023-08-17T03:12:11;41.43;33.94;47.12;;
72686;Laerm;61365;52.162;4.500;2023-08-17T03:14:37;41.44;32.26;47.35;;
72686;Laerm;61365;52.162;4.500;2023-08-17T03:17:03;41.43;34.56;43.86;;
72686;Laerm;61365;52.162;4.500;2023-08-17T03:19:29;41.36;34.81;43.84;;
72686;Laerm;61365;52.162;4.500;2023-08-17T03:21:55;41.47;34.03;43.88;;
72686;Laerm;61365;52.162;4.500;2023-08-17T03:24:21;41.52;34.84;48.22;;
72686;Laerm;61365;52.162;4.500;2023-08-17T03:26:48;41.48;33.33;43.92;;
72686;Laerm;61365;52.162;4.500;2023-08-17T03:29:14;41.43;34.42;44.01;;
72686;Laerm;61365;52.162;4.500;2023-08-17T03:31:40;41.48;35.77;43.83;;
72686;Laerm;61365;52.162;4.500;2023-08-17T03:34:06;41.38;33.88;43.84;;
72686;Laerm;61365;52.162;4.500;2023-08-17T03:36:32;41.40;34.24;43.71;;
72686;Laerm;61365;52.162;4.500;2023-08-17T03:38:58;41.49;34.07;44.32;;
72686;Laerm;61365;52.162;4.500;2023-08-17T03:41:25;41.54;34.15;43.89;;
72686;Laerm;61365;52.162;4.500;2023-08-17T03:43:51;41.51;34.06;43.88;;
72686;Laerm;61365;52.162;4.500;2023-08-17T03:46:17;41.56;34.23;43.85;;
72686;Laerm;61365;52.162;4.500;2023-08-17T03:48:43;41.46;33.91;48.03;;
72686;Laerm;61365;52.162;4.500;2023-08-17T03:51:09;41.54;35.60;43.77;;
72686;Laerm;61365;52.162;4.500;2023-08-17T03:53:35;41.51;33.83;44.34;;
72686;Laerm;61365;52.162;4.500;2023-08-17T03:56:01;41.51;34.16;43.89;;
72686;Laerm;61365;52.162;4.500;2023-08-17T03:58:28;41.53;34.00;43.82;;
72686;Laerm;61365;52.162;4.500;2023-08-17T04:00:59;41.81;33.57;47.17;;
72686;Laerm;61365;52.162;4.500;2023-08-17T04:03:25;41.74;34.46;44.19;;
72686;Laerm;61365;52.162;4.500;2023-08-17T04:05:51;41.60;34.62;44.30;;
72686;Laerm;61365;52.162;4.500;2023-08-17T04:08:17;41.53;35.04;44.19;;
72686;Laerm;61365;52.162;4.500;2023-08-17T04:10:43;41.59;33.59;44.30;;
72686;Laerm;61365;52.162;4.500;2023-08-17T04:13:09;41.42;32.71;43.78;;
72686;Laerm;61365;52.162;4.500;2023-08-17T04:15:35;41.39;34.38;43.74;;
72686;Laerm;61365;52.162;4.500;2023-08-17T04:18:02;41.44;35.32;43.94;;
72686;Laerm;61365;52.162;4.500;2023-08-17T04:20:28;41.42;34.19;45.07;;
72686;Laerm;61365;52.162;4.500;2023-08-17T04:22:54;41.50;34.61;43.90;;
72686;Laerm;61365;52.162;4.500;2023-08-17T04:25:20;41.55;34.54;47.64;;
72686;Laerm;61365;52.162;4.500;2023-08-17T04:27:46;41.61;35.21;44.01;;
72686;Laerm;61365;52.162;4.500;2023-08-17T04:30:12;41.39;33.40;43.59;;
72686;Laerm;61365;52.162;4.500;2023-08-17T04:32:38;41.34;33.45;45.57;;
72686;Laerm;61365;52.162;4.500;2023-08-17T04:35:05;41.43;32.57;43.84;;
72686;Laerm;61365;52.162;4.500;2023-08-17T04:37:31;41.55;32.82;47.40;;
72686;Laerm;61365;52.162;4.500;2023-08-17T04:39:57;41.63;34.46;44.26;;
72686;Laerm;61365;52.162;4.500;2023-08-17T04:42:24;41.53;34.72;45.86;;
72686;Laerm;61365;52.162;4.500;2023-08-17T04:44:50;41.50;32.96;44.10;;
72686;Laerm;61365;52.162;4.500;2023-08-17T04:47:16;41.59;34.43;47.24;;
72686;Laerm;61365;52.162;4.500;2023-08-17T04:49:43;41.26;33.70;44.02;;
72686;Laerm;61365;52.162;4.500;2023-08-17T04:52:09;41.47;34.60;44.20;;
72686;Laerm;61365;52.162;4.500;2023-08-17T04:54:35;41.43;34.57;43.94;;
72686;Laerm;61365;52.162;4.500;2023-08-17T04:57:02;41.50;33.95;44.72;;
72686;Laerm;61365;52.162;4.500;2023-08-17T04:59:30;41.70;33.71;47.53;;
72686;Laerm;61365;52.162;4.500;2023-08-17T05:01:56;41.69;35.88;44.26;;
72686;Laerm;61365;52.162;4.500;2023-08-17T05:04:22;41.71;33.91;44.07;;
72686;Laerm;61365;52.162;4.500;2023-08-17T05:06:48;41.64;34.23;44.42;;
72686;Laerm;61365;52.162;4.500;2023-08-17T05:09:14;41.62;33.24;44.02;;
72686;Laerm;61365;52.162;4.500;2023-08-17T05:11:40;41.48;33.04;43.91;;
72686;Laerm;61365;52.162;4.500;2023-08-17T05:14:07;41.36;34.00;44.10;;
72686;Laerm;61365;52.162;4.500;2023-08-17T05:16:33;41.30;33.83;43.82;;
72686;Laerm;61365;52.162;4.500;2023-08-17T05:18:59;41.30;32.88;43.73;;
72686;Laerm;61365;52.162;4.500;2023-08-17T05:21:26;41.34;34.18;47.66;;
72686;Laerm;61365;52.162;4.500;2023-08-17T05:23:52;41.34;34.58;43.89;;
72686;Laerm;61365;52.162;4.500;2023-08-17T05:26:18;41.33;35.05;47.57;;
72686;Laerm;61365;52.162;4.500;2023-08-17T05:28:50;41.43;34.36;43.76;;
72686;Laerm;61365;52.162;4.500;2023-08-17T05:31:16;41.42;33.62;47.47;;
72686;Laerm;61365;52.162;4.500;2023-08-17T05:33:42;41.47;33.67;43.82;;
72686;Laerm;61365;52.162;4.500;2023-08-17T05:36:08;41.34;33.92;47.60;;
72686;Laerm;61365;52.162;4.500;2023-08-17T05:38:34;41.33;34.31;48.21;;
72686;Laerm;61365;52.162;4.500;2023-08-17T05:41:01;41.37;33.57;43.89;;
72686;Laerm;61365;52.162;4.500;2023-08-17T05:43:27;41.53;33.69;44.03;;
72686;Laerm;61365;52.162;4.500;2023-08-17T05:45:53;41.44;34.73;44.37;;
72686;Laerm;61365;52.162;4.500;2023-08-17T05:48:20;41.38;34.74;44.39;;
72686;Laerm;61365;52.162;4.500;2023-08-17T05:50:47;41.32;33.45;43.82;;
72686;Laerm;61365;52.162;4.500;2023-08-17T05:53:13;41.47;35.14;44.10;;
72686;Laerm;61365;52.162;4.500;2023-08-17T05:55:39;41.50;34.59;44.17;;
72686;Laerm;61365;52.162;4.500;2023-08-17T05:58:06;41.54;35.76;44.22;;
72686;Laerm;61365;52.162;4.500;2023-08-17T06:00:32;41.43;33.25;44.30;;
72686;Laerm;61365;52.162;4.500;2023-08-17T06:02:58;41.43;34.02;43.69;;
72686;Laerm;61365;52.162;4.500;2023-08-17T06:05:28;41.48;34.61;44.11;;
72686;Laerm;61365;52.162;4.500;2023-08-17T06:07:55;41.46;34.11;44.52;;
72686;Laerm;61365;52.162;4.500;2023-08-17T06:10:22;41.55;34.74;44.07;;
72686;Laerm;61365;52.162;4.500;2023-08-17T06:12:57;41.39;35.38;44.21;;
72686;Laerm;61365;52.162;4.500;2023-08-17T06:15:23;41.20;35.02;43.66;;
72686;Laerm;61365;52.162;4.500;2023-08-17T06:17:50;41.24;34.27;43.59;;
72686;Laerm;61365;52.162;4.500;2023-08-17T06:20:17;41.12;33.56;47.80;;
72686;Laerm;61365;52.162;4.500;2023-08-17T06:22:44;41.19;35.05;43.79;;
72686;Laerm;61365;52.162;4.500;2023-08-17T06:25:10;41.19;35.09;43.70;;
72686;Laerm;61365;52.162;4.500;2023-08-17T06:27:37;41.16;34.74;43.70;;
72686;Laerm;61365;52.162;4.500;2023-08-17T06:30:04;41.35;35.14;43.73;;
72686;Laerm;61365;52.162;4.500;2023-08-17T06:32:30;41.32;33.35;44.05;;
72686;Laerm;61365;52.162;4.500;2023-08-17T06:34:57;41.59;33.48;44.37;;
72686;Laerm;61365;52.162;4.500;2023-08-17T06:37:23;41.27;34.07;43.85;;
72686;Laerm;61365;52.162;4.500;2023-08-17T06:39:49;41.30;33.48;47.66;;
72686;Laerm;61365;52.162;4.500;2023-08-17T06:42:16;41.18;33.49;47.77;;
72686;Laerm;61365;52.162;4.500;2023-08-17T06:44:42;41.34;34.71;43.62;;
72686;Laerm;61365;52.162;4.500;2023-08-17T06:47:08;41.21;35.00;43.59;;
72686;Laerm;61365;52.162;4.500;2023-08-17T06:49:35;41.22;34.60;43.79;;
72686;Laerm;61365;52.162;4.500;2023-08-17T06:52:01;41.13;34.08;43.55;;
72686;Laerm;61365;52.162;4.500;2023-08-17T06:54:27;41.21;36.17;43.38;;
72686;Laerm;61365;52.162;4.500;2023-08-17T06:56:53;41.23;34.25;43.45;;
72686;Laerm;61365;52.162;4.500;2023-08-17T06:59:19;41.23;34.11;43.59;;
72686;Laerm;61365;52.162;4.500;2023-08-17T07:01:45;41.07;34.33;43.48;;
72686;Laerm;61365;52.162;4.500;2023-08-17T07:04:11;41.20;34.70;43.85;;
72686;Laerm;61365;52.162;4.500;2023-08-17T07:06:38;41.23;33.44;43.87;;
72686;Laerm;61365;52.162;4.500;2023-08-17T07:09:04;41.27;33.78;43.84;;
72686;Laerm;61365;52.162;4.500;2023-08-17T07:11:31;41.56;34.63;43.78;;
72686;Laerm;61365;52.162;4.500;2023-08-17T07:13:57;41.43;35.65;43.86;;
72686;Laerm;61365;52.162;4.500;2023-08-17T07:16:23;41.18;35.08;43.69;;
72686;Laerm;61365;52.162;4.500;2023-08-17T07:18:49;41.33;34.20;43.73;;
72686;Laerm;61365;52.162;4.500;2023-08-17T07:21:15;41.47;34.13;43.94;;
72686;Laerm;61365;52.162;4.500;2023-08-17T07:23:44;41.44;34.79;44.06;;
72686;Laerm;61365;52.162;4.500;2023-08-17T07:26:10;41.63;33.58;43.99;;
72686;Laerm;61365;52.162;4.500;2023-08-17T07:28:37;41.66;35.25;44.19;;
72686;Laerm;61365;52.162;4.500;2023-08-17T07:31:03;41.60;34.32;44.38;;
72686;Laerm;61365;52.162;4.500;2023-08-17T07:33:31;41.73;34.12;44.52;;
72686;Laerm;61365;52.162;4.500;2023-08-17T07:35:58;41.53;34.03;43.93;;
72686;Laerm;61365;52.162;4.500;2023-08-17T07:38:24;41.54;35.52;43.98;;
72686;Laerm;61365;52.162;4.500;2023-08-17T07:40:50;41.62;35.56;44.46;;
72686;Laerm;61365;52.162;4.500;2023-08-17T07:43:16;41.56;35.91;44.16;;
72686;Laerm;61365;52.162;4.500;2023-08-17T07:45:42;41.52;34.23;43.97;;
72686;Laerm;61365;52.162;4.500;2023-08-17T07:48:08;41.48;35.24;44.15;;
72686;Laerm;61365;52.162;4.500;2023-08-17T07:50:34;41.45;35.13;43.96;;
72686;Laerm;61365;52.162;4.500;2023-08-17T07:53:01;41.34;35.03;43.88;;
72686;Laerm;61365;52.162;4.500;2023-08-17T07:55:27;41.38;34.69;43.77;;
72686;Laerm;61365;52.162;4.500;2023-08-17T07:57:53;41.44;33.91;43.89;;
72686;Laerm;61365;52.162;4.500;2023-08-17T08:00:19;41.35;32.60;43.58;;
72686;Laerm;61365;52.162;4.500;2023-08-17T08:02:46;41.48;34.09;43.97;;
72686;Laerm;61365;52.162;4.500;2023-08-17T08:05:12;40.87;34.30;43.31;;
72686;Laerm;61365;52.162;4.500;2023-08-17T08:07:40;40.84;35.18;43.23;;
72686;Laerm;61365;52.162;4.500;2023-08-17T08:10:07;40.91;34.12;43.10;;
72686;Laerm;61365;52.162;4.500;2023-08-17T08:12:33;40.91;35.02;43.34;;
72686;Laerm;61365;52.162;4.500;2023-08-17T08:14:59;40.85;34.31;43.52;;
72686;Laerm;61365;52.162;4.500;2023-08-17T08:17:25;40.86;34.81;43.23;;
72686;Laerm;61365;52.162;4.500;2023-08-17T08:19:52;41.19;34.59;43.92;;
72686;Laerm;61365;52.162;4.500;2023-08-17T08:22:18;41.21;34.28;44.06;;
72686;Laerm;61365;52.162;4.500;2023-08-17T08:24:44;41.23;36.42;43.73;;
72686;Laerm;61365;52.162;4.500;2023-08-17T08:27:10;41.04;34.54;43.62;;
72686;Laerm;61365;52.162;4.500;2023-08-17T08:29:37;40.89;34.30;43.18;;
72686;Laerm;61365;52.162;4.500;2023-08-17T08:32:04;40.93;34.07;43.48;;
72686;Laerm;61365;52.162;4.500;2023-08-17T08:34:30;40.99;35.16;43.72;;
72686;Laerm;61365;52.162;4.500;2023-08-17T08:36:56;40.92;35.27;43.38;;
72686;Laerm;61365;52.162;4.500;2023-08-17T08:39:25;40.94;34.41;43.62;;
72686;Laerm;61365;52.162;4.500;2023-08-17T08:41:51;40.93;34.74;43.43;;
72686;Laerm;61365;52.162;4.500;2023-08-17T08:44:18;40.86;33.55;43.26;;
72686;Laerm;61365;52.162;4.500;2023-08-17T08:46:44;41.01;34.48;46.40;;
72686;Laerm;61365;52.162;4.500;2023-08-17T08:49:12;40.94;35.08;43.49;;
72686;Laerm;61365;52.162;4.500;2023-08-17T08:51:42;40.96;34.61;43.44;;
72686;Laerm;61365;52.162;4.500;2023-08-17T08:54:13;40.91;35.41;43.20;;
72686;Laerm;61365;52.162;4.500;2023-08-17T08:56:42;40.98;34.89;43.33;;
72686;Laerm;61365;52.162;4.500;2023-08-17T08:59:10;40.94;35.05;43.16;;
72686;Laerm;61365;52.162;4.500;2023-08-17T09:01:36;41.02;34.31;43.33;;
72686;Laerm;61365;52.162;4.500;2023-08-17T09:04:03;40.92;34.87;43.41;;
72686;Laerm;61365;52.162;4.500;2023-08-17T09:06:30;40.89;35.35;43.25;;
72686;Laerm;61365;52.162;4.500;2023-08-17T09:08:57;40.87;35.76;43.34;;
72686;Laerm;61365;52.162;4.500;2023-08-17T09:11:24;40.93;34.02;43.32;;
72686;Laerm;61365;52.162;4.500;2023-08-17T09:13:52;40.92;34.21;43.05;;
72686;Laerm;61365;52.162;4.500;2023-08-17T09:16:18;40.93;33.80;43.50;;
72686;Laerm;61365;52.162;4.500;2023-08-17T09:18:44;40.95;35.28;43.40;;
72686;Laerm;61365;52.162;4.500;2023-08-17T09:21:22;40.91;34.85;43.16;;
72686;Laerm;61365;52.162;4.500;2023-08-17T09:23:56;40.93;35.04;43.27;;
72686;Laerm;61365;52.162;4.500;2023-08-17T09:26:22;40.91;34.87;43.36;;
72686;Laerm;61365;52.162;4.500;2023-08-17T09:28:52;40.95;34.04;45.90;;
72686;Laerm;61365;52.162;4.500;2023-08-17T09:31:20;40.98;33.68;43.63;;
72686;Laerm;61365;52.162;4.500;2023-08-17T09:33:51;41.02;34.28;43.52;;
72686;Laerm;61365;52.162;4.500;2023-08-17T09:36:21;41.03;34.48;43.59;;
72686;Laerm;61365;52.162;4.500;2023-08-17T09:38:51;40.98;35.22;43.30;;
72686;Laerm;61365;52.162;4.500;2023-08-17T09:41:18;41.02;35.28;43.70;;
72686;Laerm;61365;52.162;4.500;2023-08-17T09:43:46;41.05;34.98;43.62;;
72686;Laerm;61365;52.162;4.500;2023-08-17T09:46:12;40.98;33.90;43.28;;
72686;Laerm;61365;52.162;4.500;2023-08-17T09:48:38;40.98;34.35;43.28;;
72686;Laerm;61365;52.162;4.500;2023-08-17T09:51:06;40.91;34.73;43.20;;
72686;Laerm;61365;52.162;4.500;2023-08-17T09:53:35;40.88;34.49;43.59;;
72686;Laerm;61365;52.162;4.500;2023-08-17T09:56:05;40.95;35.17;43.32;;
72686;Laerm;61365;52.162;4.500;2023-08-17T09:58:38;40.99;34.33;43.85;;
72686;Laerm;61365;52.162;4.500;2023-08-17T10:01:04;40.91;33.73;43.27;;
72686;Laerm;61365;52.162;4.500;2023-08-17T10:03:34;40.86;34.23;43.36;;
72686;Laerm;61365;52.162;4.500;2023-08-17T10:06:05;40.91;35.47;43.33;;
72686;Laerm;61365;52.162;4.500;2023-08-17T10:08:42;40.88;35.33;43.37;;
72686;Laerm;61365;52.162;4.500;2023-08-17T10:11:10;40.92;35.43;43.27;;
72686;Laerm;61365;52.162;4.500;2023-08-17T10:13:57;40.87;35.21;43.26;;
72686;Laerm;61365;52.162;4.500;2023-08-17T10:16:32;40.89;36.19;43.40;;
72686;Laerm;61365;52.162;4.500;2023-08-17T10:19:41;40.89;34.18;43.70;;
72686;Laerm;61365;52.162;4.500;2023-08-17T10:22:13;40.83;34.21;43.31;;
72686;Laerm;61365;52.162;4.500;2023-08-17T10:24:42;40.73;33.58;43.22;;
72686;Laerm;61365;52.162;4.500;2023-08-17T10:27:09;40.69;33.53;43.20;;
72686;Laerm;61365;52.162;4.500;2023-08-17T10:29:38;40.68;36.17;43.04;;
72686;Laerm;61365;52.162;4.500;2023-08-17T10:32:06;40.83;34.01;43.13;;
72686;Laerm;61365;52.162;4.500;2023-08-17T10:34:34;40.84;34.83;43.32;;
72686;Laerm;61365;52.162;4.500;2023-08-17T10:37:01;40.87;33.82;43.48;;
72686;Laerm;61365;52.162;4.500;2023-08-17T10:39:28;40.88;35.85;43.15;;
72686;Laerm;61365;52.162;4.500;2023-08-17T10:41:56;40.89;33.45;43.35;;
72686;Laerm;61365;52.162;4.500;2023-08-17T10:44:51;40.83;35.86;43.34;;
72686;Laerm;61365;52.162;4.500;2023-08-17T10:47:27;40.78;34.13;43.21;;
72686;Laerm;61365;52.162;4.500;2023-08-17T10:50:04;40.85;35.16;43.21;;
72686;Laerm;61365;52.162;4.500;2023-08-17T10:52:35;40.85;34.13;43.53;;
72686;Laerm;61365;52.162;4.500;2023-08-17T10:55:07;40.77;35.55;43.26;;
72686;Laerm;61365;52.162;4.500;2023-08-17T10:57:39;40.74;35.10;43.22;;
72686;Laerm;61365;52.162;4.500;2023-08-17T11:00:17;40.69;34.97;43.20;;
72686;Laerm;61365;52.162;4.500;2023-08-17T11:02:58;40.66;34.57;43.19;;
72686;Laerm;61365;52.162;4.500;2023-08-17T11:08:04;40.83;34.25;43.21;;
72686;Laerm;61365;52.162;4.500;2023-08-17T11:10:31;40.79;34.59;43.48;;
72686;Laerm;61365;52.162;4.500;2023-08-17T11:12:57;40.88;34.76;43.27;;
72686;Laerm;61365;52.162;4.500;2023-08-17T11:15:37;40.88;35.48;43.35;;
72686;Laerm;61365;52.162;4.500;2023-08-17T11:18:06;40.90;35.13;43.29;;
72686;Laerm;61365;52.162;4.500;2023-08-17T11:20:33;40.91;35.06;43.50;;
72686;Laerm;61365;52.162;4.500;2023-08-17T11:22:59;40.82;33.09;42.95;;
72686;Laerm;61365;52.162;4.500;2023-08-17T11:25:26;40.81;34.36;43.29;;
72686;Laerm;61365;52.162;4.500;2023-08-17T11:27:56;40.86;34.74;43.29;;
72686;Laerm;61365;52.162;4.500;2023-08-17T11:30:22;40.78;34.93;43.23;;
72686;Laerm;61365;52.162;4.500;2023-08-17T11:32:50;40.83;35.00;43.04;;
72686;Laerm;61365;52.162;4.500;2023-08-17T11:35:17;40.83;35.86;43.03;;
72686;Laerm;61365;52.162;4.500;2023-08-17T11:37:43;40.77;36.05;43.20;;
72686;Laerm;61365;52.162;4.500;2023-08-17T11:40:13;40.81;35.66;43.56;;
72686;Laerm;61365;52.162;4.500;2023-08-17T11:42:40;40.95;35.03;43.25;;
72686;Laerm;61365;52.162;4.500;2023-08-17T11:45:06;40.84;34.34;43.33;;
72686;Laerm;61365;52.162;4.500;2023-08-17T11:47:39;40.77;34.40;43.61;;
72686;Laerm;61365;52.162;4.500;2023-08-17T11:50:09;40.70;35.00;42.76;;
72686;Laerm;61365;52.162;4.500;2023-08-17T11:52:35;40.81;34.57;43.46;;
72686;Laerm;61365;52.162;4.500;2023-08-17T11:55:06;40.91;34.40;43.24;;
72686;Laerm;61365;52.162;4.500;2023-08-17T11:57:33;40.93;35.02;43.56;;
72686;Laerm;61365;52.162;4.500;2023-08-17T12:00:00;41.01;33.78;43.15;;
72686;Laerm;61365;52.162;4.500;2023-08-17T12:02:27;41.05;34.10;43.45;;
72686;Laerm;61365;52.162;4.500;2023-08-17T12:04:55;40.58;34.62;43.16;;
72686;Laerm;61365;52.162;4.500;2023-08-17T12:07:23;40.89;35.39;43.84;;
72686;Laerm;61365;52.162;4.500;2023-08-17T12:09:51;40.68;34.15;43.07;;
72686;Laerm;61365;52.162;4.500;2023-08-17T12:12:18;40.69;34.38;43.18;;
72686;Laerm;61365;52.162;4.500;2023-08-17T12:14:46;40.71;34.74;43.23;;
72686;Laerm;61365;52.162;4.500;2023-08-17T12:17:21;40.71;34.17;43.12;;
72686;Laerm;61365;52.162;4.500;2023-08-17T12:19:54;40.72;34.72;43.49;;
72686;Laerm;61365;52.162;4.500;2023-08-17T12:22:23;40.73;34.61;43.16;;
72686;Laerm;61365;52.162;4.500;2023-08-17T12:24:50;40.60;35.13;43.07;;
72686;Laerm;61365;52.162;4.500;2023-08-17T12:27:16;40.60;34.29;43.12;;
72686;Laerm;61365;52.162;4.500;2023-08-17T12:29:50;40.57;33.49;43.01;;
72686;Laerm;61365;52.162;4.500;2023-08-17T12:32:18;40.56;33.74;43.10;;
72686;Laerm;61365;52.162;4.500;2023-08-17T12:34:45;40.68;34.71;43.12;;
72686;Laerm;61365;52.162;4.500;2023-08-17T12:37:12;40.73;33.78;47.19;;
72686;Laerm;61365;52.162;4.500;2023-08-17T12:39:38;40.74;33.70;43.31;;
72686;Laerm;61365;52.162;4.500;2023-08-17T12:42:05;40.69;34.12;43.09;;
72686;Laerm;61365;52.162;4.500;2023-08-17T12:44:31;40.96;34.94;43.22;;
72686;Laerm;61365;52.162;4.500;2023-08-17T12:46:57;40.84;34.32;43.62;;
72686;Laerm;61365;52.162;4.500;2023-08-17T12:49:23;40.75;35.39;43.09;;
72686;Laerm;61365;52.162;4.500;2023-08-17T12:51:50;40.96;33.85;43.19;;
72686;Laerm;61365;52.162;4.500;2023-08-17T12:54:16;40.74;34.30;43.72;;
72686;Laerm;61365;52.162;4.500;2023-08-17T12:56:43;40.97;34.69;43.38;;
72686;Laerm;61365;52.162;4.500;2023-08-17T12:59:10;40.94;35.12;43.19;;
72686;Laerm;61365;52.162;4.500;2023-08-17T13:01:36;40.90;34.43;43.52;;
72686;Laerm;61365;52.162;4.500;2023-08-17T13:04:02;40.87;34.98;43.16;;
72686;Laerm;61365;52.162;4.500;2023-08-17T13:06:28;40.93;33.64;43.13;;
72686;Laerm;61365;52.162;4.500;2023-08-17T13:08:55;40.96;34.19;43.28;;
72686;Laerm;61365;52.162;4.500;2023-08-17T13:11:23;41.00;35.69;43.44;;
72686;Laerm;61365;52.162;4.500;2023-08-17T13:13:49;40.92;34.49;43.45;;
72686;Laerm;61365;52.162;4.500;2023-08-17T13:16:15;40.82;34.35;43.12;;
72686;Laerm;61365;52.162;4.500;2023-08-17T13:18:41;40.89;33.71;43.01;;
72686;Laerm;61365;52.162;4.500;2023-08-17T13:21:07;40.84;33.86;43.80;;
72686;Laerm;61365;52.162;4.500;2023-08-17T13:23:34;41.00;33.65;43.77;;
72686;Laerm;61365;52.162;4.500;2023-08-17T13:26:00;40.89;35.26;43.34;;
72686;Laerm;61365;52.162;4.500;2023-08-17T13:28:26;40.91;34.54;43.15;;
72686;Laerm;61365;52.162;4.500;2023-08-17T13:30:52;40.97;34.32;43.46;;
72686;Laerm;61365;52.162;4.500;2023-08-17T13:33:18;41.06;35.33;43.75;;
72686;Laerm;61365;52.162;4.500;2023-08-17T13:35:44;40.95;34.64;43.61;;
72686;Laerm;61365;52.162;4.500;2023-08-17T13:38:11;40.93;33.75;43.37;;
72686;Laerm;61365;52.162;4.500;2023-08-17T13:40:38;40.91;33.57;43.28;;
72686;Laerm;61365;52.162;4.500;2023-08-17T13:43:05;40.94;34.62;43.44;;
72686;Laerm;61365;52.162;4.500;2023-08-17T13:45:41;40.87;35.25;43.21;;
72686;Laerm;61365;52.162;4.500;2023-08-17T13:48:08;40.95;33.79;43.39;;
72686;Laerm;61365;52.162;4.500;2023-08-17T13:50:38;40.89;35.33;43.13;;